createdAt,value
2018-02-15T00:00:09.622Z,-2.16
2018-02-15T00:01:09.657Z,-2.16
2018-02-15T00:02:09.611Z,-2.21
2018-02-15T00:03:09.603Z,-2.26
2018-02-15T00:04:09.592Z,-2.21
2018-02-15T00:05:09.583Z,-2.28
2018-02-15T00:06:09.632Z,-2.17
2018-02-15T00:07:09.571Z,-2.35
2018-02-15T00:08:09.602Z,-2.29
2018-02-15T00:09:09.554Z,-2.33
2018-02-15T00:10:09.553Z,-2.39
2018-02-15T00:11:09.542Z,-2.26
2018-02-15T00:12:09.574Z,-2.24
2018-02-15T00:13:09.528Z,-2.13
2018-02-15T00:14:09.516Z,-2.14
2018-02-15T00:15:09.514Z,-2.16
2018-02-15T00:16:09.503Z,-2.17
2018-02-15T00:17:09.543Z,-2.02
2018-02-15T00:18:09.524Z,-2.23
2018-02-15T00:19:09.482Z,-2.18
2018-02-15T00:20:09.472Z,-2.02
2018-02-15T00:21:09.461Z,-2.02
2018-02-15T00:22:09.500Z,-1.95
2018-02-15T00:23:09.452Z,-2.03
2018-02-15T00:24:09.441Z,-2.08
2018-02-15T00:25:09.435Z,-2.05
2018-02-15T00:26:09.426Z,-1.98
2018-02-15T00:27:09.461Z,-2.02
2018-02-15T00:28:09.411Z,-1.90
2018-02-15T00:29:09.403Z,-1.87
2018-02-15T00:30:09.397Z,-1.85
2018-02-15T00:31:09.395Z,-2.00
2018-02-15T00:32:09.419Z,-2.06
2018-02-15T00:33:09.375Z,-2.05
2018-02-15T00:34:09.367Z,-2.02
2018-02-15T00:35:09.360Z,-1.93
2018-02-15T00:36:09.347Z,-1.87
2018-02-15T00:37:09.379Z,-1.75
2018-02-15T00:38:09.332Z,-1.88
2018-02-15T00:39:09.327Z,-1.87
2018-02-15T00:40:09.317Z,-1.90
2018-02-15T00:41:09.311Z,-1.93
2018-02-15T00:42:09.342Z,-2.00
2018-02-15T00:43:09.298Z,-1.99
2018-02-15T00:44:09.289Z,-1.82
2018-02-15T00:45:09.281Z,-1.92
2018-02-15T00:46:09.277Z,-1.88
2018-02-15T00:47:09.306Z,-1.95
2018-02-15T00:48:09.259Z,-1.90
2018-02-15T00:49:09.249Z,-1.87
2018-02-15T00:50:09.244Z,-1.85
2018-02-15T00:51:09.276Z,-2.02
2018-02-15T00:52:09.230Z,-2.06
2018-02-15T00:53:09.233Z,-2.05
2018-02-15T00:54:09.234Z,-2.03
2018-02-15T00:55:09.205Z,-1.84
2018-02-15T00:56:09.238Z,-1.92
2018-02-15T00:57:09.200Z,-1.93
2018-02-15T00:58:09.183Z,-1.92
2018-02-15T00:59:09.174Z,-2.02
2018-02-15T01:00:09.173Z,-2.11
2018-02-15T01:01:09.207Z,-1.95
2018-02-15T01:02:09.153Z,-1.92
2018-02-15T01:03:09.146Z,-2.05
2018-02-15T01:04:09.144Z,-2.03
2018-02-15T01:05:09.128Z,-2.08
2018-02-15T01:06:09.695Z,-2.11
2018-02-15T01:07:09.116Z,-2.08
2018-02-15T01:08:09.110Z,-2.02
2018-02-15T01:09:09.103Z,-2.05
2018-02-15T01:10:09.092Z,-2.00
2018-02-15T01:11:09.125Z,-2.10
2018-02-15T01:12:09.079Z,-2.00
2018-02-15T01:13:09.072Z,-2.16
2018-02-15T01:14:09.068Z,-2.14
2018-02-15T01:15:09.060Z,-2.23
2018-02-15T01:16:09.089Z,-2.38
2018-02-15T01:17:09.037Z,-2.32
2018-02-15T01:18:09.033Z,-2.28
2018-02-15T01:19:09.022Z,-2.36
2018-02-15T01:20:09.017Z,-2.38
2018-02-15T01:21:09.060Z,-2.36
2018-02-15T01:22:09.042Z,-2.54
2018-02-15T01:23:09.008Z,-2.53
2018-02-15T01:24:08.987Z,-2.57
2018-02-15T01:25:08.979Z,-2.64
2018-02-15T01:26:08.968Z,-2.76
2018-02-15T01:27:09.000Z,-2.90
2018-02-15T01:28:09.015Z,-3.05
2018-02-15T01:29:09.007Z,-3.00
2018-02-15T01:30:08.943Z,-3.08
2018-02-15T01:31:08.933Z,-3.20
2018-02-15T01:32:08.975Z,-3.23
2018-02-15T01:33:08.915Z,-3.22
2018-02-15T01:34:08.913Z,-3.14
2018-02-15T01:35:08.900Z,-3.08
2018-02-15T01:36:08.891Z,-3.08
2018-02-15T01:37:08.927Z,-3.13
2018-02-15T01:38:08.919Z,-3.20
2018-02-15T01:39:08.869Z,-3.20
2018-02-15T01:40:08.872Z,-3.22
2018-02-15T01:41:08.852Z,-3.20
2018-02-15T01:42:08.846Z,-3.10
2018-02-15T01:43:08.880Z,-3.23
2018-02-15T01:44:08.829Z,-3.29
2018-02-15T01:45:08.881Z,-3.35
2018-02-15T01:46:08.811Z,-3.54
2018-02-15T01:47:08.858Z,-3.61
2018-02-15T01:48:08.795Z,-3.65
2018-02-15T01:49:09.592Z,-3.70
2018-02-15T01:50:08.777Z,-3.56
2018-02-15T01:51:08.772Z,-3.39
2018-02-15T01:52:08.797Z,-3.51
2018-02-15T01:53:08.795Z,-3.47
2018-02-15T01:54:08.748Z,-3.51
2018-02-15T01:55:08.742Z,-3.56
2018-02-15T01:56:08.727Z,-3.53
2018-02-15T01:57:08.723Z,-3.75
2018-02-15T01:58:08.756Z,-3.72
2018-02-15T01:59:08.703Z,-3.76
2018-02-15T02:00:08.702Z,-3.87
2018-02-15T02:01:08.689Z,-3.96
2018-02-15T02:02:08.788Z,-3.96
2018-02-15T02:03:08.720Z,-3.80
2018-02-15T02:04:08.662Z,-3.87
2018-02-15T02:05:08.653Z,-3.89
2018-02-15T02:06:08.646Z,-3.87
2018-02-15T02:07:08.639Z,-3.94
2018-02-15T02:08:08.669Z,-3.93
2018-02-15T02:09:08.622Z,-3.86
2018-02-15T02:10:08.614Z,-3.76
2018-02-15T02:11:08.602Z,-3.68
2018-02-15T02:12:08.595Z,-3.76
2018-02-15T02:13:08.626Z,-3.87
2018-02-15T02:14:08.578Z,-3.93
2018-02-15T02:15:08.603Z,-3.99
2018-02-15T02:16:08.562Z,-4.05
2018-02-15T02:17:08.554Z,-4.20
2018-02-15T02:18:08.592Z,-4.36
2018-02-15T02:19:08.537Z,-4.44
2018-02-15T02:20:08.526Z,-4.46
2018-02-15T02:21:08.579Z,-4.41
2018-02-15T02:22:08.747Z,-4.22
2018-02-15T02:23:08.537Z,-4.23
2018-02-15T02:24:08.495Z,-4.33
2018-02-15T02:25:08.497Z,-4.29
2018-02-15T02:26:08.479Z,-4.43
2018-02-15T02:27:08.465Z,-4.38
2018-02-15T02:28:08.502Z,-4.37
2018-02-15T02:29:08.452Z,-4.47
2018-02-15T02:30:08.443Z,-4.46
2018-02-15T02:31:08.436Z,-4.51
2018-02-15T02:32:08.428Z,-4.46
2018-02-15T02:33:08.452Z,-4.51
2018-02-15T02:34:08.407Z,-4.43
2018-02-15T02:35:08.400Z,-4.57
2018-02-15T02:36:08.385Z,-4.65
2018-02-15T02:37:08.378Z,-4.73
2018-02-15T02:38:08.417Z,-4.76
2018-02-15T02:39:08.360Z,-4.66
2018-02-15T02:40:08.352Z,-4.58
2018-02-15T02:41:08.346Z,-4.64
2018-02-15T02:42:08.332Z,-4.62
2018-02-15T02:43:08.364Z,-4.68
2018-02-15T02:44:08.354Z,-4.73
2018-02-15T02:45:08.304Z,-4.77
2018-02-15T02:46:08.298Z,-4.91
2018-02-15T02:47:08.285Z,-4.89
2018-02-15T02:48:08.277Z,-4.89
2018-02-15T02:49:08.322Z,-4.95
2018-02-15T02:50:08.256Z,-4.89
2018-02-15T02:51:08.455Z,-5.03
2018-02-15T02:52:08.241Z,-5.01
2018-02-15T02:53:08.231Z,-4.85
2018-02-15T02:54:08.260Z,-4.68
2018-02-15T02:55:08.217Z,-4.76
2018-02-15T02:56:08.204Z,-4.75
2018-02-15T02:57:08.202Z,-4.79
2018-02-15T02:58:08.192Z,-4.82
2018-02-15T02:59:08.218Z,-4.87
2018-02-15T03:00:08.168Z,-4.98
2018-02-15T03:01:08.159Z,-5.04
2018-02-15T03:02:08.149Z,-4.97
2018-02-15T03:03:08.138Z,-5.00
2018-02-15T03:04:08.176Z,-5.05
2018-02-15T03:05:08.120Z,-5.00
2018-02-15T03:06:08.117Z,-5.01
2018-02-15T03:07:08.107Z,-4.97
2018-02-15T03:08:08.094Z,-5.01
2018-02-15T03:09:08.133Z,-4.95
2018-02-15T03:10:08.080Z,-4.65
2018-02-15T03:11:08.066Z,-4.58
2018-02-15T03:12:08.061Z,-4.47
2018-02-15T03:13:08.106Z,-4.48
2018-02-15T03:14:08.042Z,-4.47
2018-02-15T03:15:08.030Z,-4.41
2018-02-15T03:16:08.023Z,-4.46
2018-02-15T03:17:08.011Z,-4.30
2018-02-15T03:18:08.051Z,-4.30
2018-02-15T03:19:07.994Z,-4.14
2018-02-15T03:20:07.983Z,-4.09
2018-02-15T03:21:07.973Z,-4.19
2018-02-15T03:22:07.964Z,-4.25
2018-02-15T03:23:08.002Z,-4.36
2018-02-15T03:24:07.956Z,-4.33
2018-02-15T03:25:07.975Z,-4.38
2018-02-15T03:26:07.930Z,-4.30
2018-02-15T03:27:07.923Z,-4.36
2018-02-15T03:28:07.912Z,-4.08
2018-02-15T03:29:07.938Z,-4.11
2018-02-15T03:30:07.938Z,-4.07
2018-02-15T03:31:07.891Z,-4.04
2018-02-15T03:32:07.878Z,-3.98
2018-02-15T03:33:07.866Z,-4.08
2018-02-15T03:34:07.859Z,-4.14
2018-02-15T03:35:07.890Z,-4.05
2018-02-15T03:36:07.842Z,-4.02
2018-02-15T03:37:07.831Z,-4.04
2018-02-15T03:38:07.822Z,-4.07
2018-02-15T03:39:07.817Z,-4.02
2018-02-15T03:40:07.849Z,-4.18
2018-02-15T03:41:07.795Z,-4.19
2018-02-15T03:42:07.785Z,-4.12
2018-02-15T03:43:07.781Z,-4.09
2018-02-15T03:44:07.786Z,-4.05
2018-02-15T03:45:07.814Z,-4.12
2018-02-15T03:46:07.757Z,-4.09
2018-02-15T03:47:07.785Z,-4.07
2018-02-15T03:48:07.739Z,-3.93
2018-02-15T03:49:07.724Z,-3.99
2018-02-15T03:50:07.718Z,-3.96
2018-02-15T03:51:07.751Z,-3.93
2018-02-15T03:52:07.702Z,-4.01
2018-02-15T03:53:07.688Z,-3.98
2018-02-15T03:54:07.681Z,-3.91
2018-02-15T03:55:07.674Z,-3.96
2018-02-15T03:56:07.705Z,-4.01
2018-02-15T03:57:07.658Z,-3.91
2018-02-15T03:58:07.652Z,-3.81
2018-02-15T03:59:07.639Z,-3.78
2018-02-15T04:00:07.632Z,-3.57
2018-02-15T04:01:07.674Z,-3.57
2018-02-15T04:02:07.614Z,-3.38
2018-02-15T04:03:07.606Z,-3.39
2018-02-15T04:04:07.595Z,-3.15
2018-02-15T04:05:07.592Z,-3.28
2018-02-15T04:06:07.616Z,-3.22
2018-02-15T04:07:07.613Z,-3.15
2018-02-15T04:08:07.562Z,-3.33
2018-02-15T04:09:07.555Z,-2.86
2018-02-15T04:10:07.546Z,-2.94
2018-02-15T04:11:07.540Z,-3.00
2018-02-15T04:12:07.566Z,-2.93
2018-02-15T04:13:07.518Z,-3.02
2018-02-15T04:14:07.523Z,-2.99
2018-02-15T04:15:07.508Z,-2.75
2018-02-15T04:16:07.496Z,-2.56
2018-02-15T04:17:07.538Z,-2.48
2018-02-15T04:18:07.478Z,-2.28
2018-02-15T04:19:07.477Z,-2.06
2018-02-15T04:20:07.465Z,-1.95
2018-02-15T04:21:07.495Z,-1.99
2018-02-15T04:22:07.488Z,-1.92
2018-02-15T04:23:07.440Z,-1.77
2018-02-15T04:24:07.429Z,-1.70
2018-02-15T04:25:07.430Z,-1.67
2018-02-15T04:26:07.417Z,-1.70
2018-02-15T04:27:07.448Z,-1.66
2018-02-15T04:28:07.398Z,-1.77
2018-02-15T04:29:07.390Z,-1.72
2018-02-15T04:30:07.391Z,-1.74
2018-02-15T04:31:07.385Z,-1.81
2018-02-15T04:32:07.419Z,-1.72
2018-02-15T04:33:07.361Z,-1.70
2018-02-15T04:34:07.355Z,-1.72
2018-02-15T04:35:07.346Z,-1.64
2018-02-15T04:36:07.378Z,-1.66
2018-02-15T04:37:07.332Z,-1.77
2018-02-15T04:38:07.327Z,-1.74
2018-02-15T04:39:07.321Z,-1.66
2018-02-15T04:40:07.945Z,-1.59
2018-02-15T04:41:07.340Z,-1.66
2018-02-15T04:42:07.293Z,-1.74
2018-02-15T04:43:07.288Z,-1.78
2018-02-15T04:44:07.282Z,-1.78
2018-02-15T04:45:07.274Z,-1.82
2018-02-15T04:46:07.307Z,-1.69
2018-02-15T04:47:07.257Z,-1.69
2018-02-15T04:48:07.252Z,-1.77
2018-02-15T04:49:07.244Z,-1.66
2018-02-15T04:50:07.236Z,-1.66
2018-02-15T04:51:07.276Z,-1.59
2018-02-15T04:52:07.225Z,-1.67
2018-02-15T04:53:07.214Z,-1.72
2018-02-15T04:54:07.205Z,-1.74
2018-02-15T04:55:07.200Z,-1.72
2018-02-15T04:56:07.241Z,-1.67
2018-02-15T04:57:07.185Z,-1.59
2018-02-15T04:58:07.181Z,-1.60
2018-02-15T04:59:07.220Z,-1.54
2018-02-15T05:00:07.164Z,-1.59
2018-02-15T05:01:07.157Z,-1.54
2018-02-15T05:02:07.185Z,-1.46
2018-02-15T05:03:07.143Z,-1.51
2018-02-15T05:04:07.136Z,-1.56
2018-02-15T05:05:07.129Z,-1.59
2018-02-15T05:06:07.121Z,-1.62
2018-02-15T05:07:07.167Z,-1.56
2018-02-15T05:08:07.108Z,-1.60
2018-02-15T05:09:07.140Z,-1.57
2018-02-15T05:10:07.093Z,-1.72
2018-02-15T05:11:07.089Z,-1.63
2018-02-15T05:12:07.117Z,-1.63
2018-02-15T05:13:07.076Z,-1.78
2018-02-15T05:14:07.065Z,-1.69
2018-02-15T05:15:07.060Z,-1.78
2018-02-15T05:16:07.052Z,-1.74
2018-02-15T05:17:07.085Z,-1.77
2018-02-15T05:18:07.069Z,-1.75
2018-02-15T05:19:07.031Z,-1.80
2018-02-15T05:20:07.027Z,-1.81
2018-02-15T05:21:07.014Z,-1.80
2018-02-15T05:22:07.060Z,-1.82
2018-02-15T05:23:07.000Z,-1.78
2018-02-15T05:24:07.034Z,-1.63
2018-02-15T05:25:06.986Z,-1.69
2018-02-15T05:26:06.981Z,-1.57
2018-02-15T05:27:06.976Z,-1.56
2018-02-15T05:28:07.017Z,-1.59
2018-02-15T05:29:06.959Z,-1.59
2018-02-15T05:30:06.953Z,-1.63
2018-02-15T05:31:06.944Z,-1.67
2018-02-15T05:32:06.940Z,-1.67
2018-02-15T05:33:06.970Z,-1.72
2018-02-15T05:34:06.927Z,-1.63
2018-02-15T05:35:06.918Z,-1.72
2018-02-15T05:36:06.913Z,-1.72
2018-02-15T05:37:06.906Z,-1.67
2018-02-15T05:38:06.933Z,-1.82
2018-02-15T05:39:06.892Z,-1.85
2018-02-15T05:40:06.889Z,-1.81
2018-02-15T05:41:06.880Z,-1.80
2018-02-15T05:42:06.867Z,-1.84
2018-02-15T05:43:06.901Z,-1.77
2018-02-15T05:44:06.857Z,-1.85
2018-02-15T05:45:06.848Z,-1.67
2018-02-15T05:46:06.843Z,-1.59
2018-02-15T05:47:06.837Z,-1.53
2018-02-15T05:48:06.866Z,-1.54
2018-02-15T05:49:06.822Z,-1.64
2018-02-15T05:50:06.818Z,-1.66
2018-02-15T05:51:06.806Z,-1.57
2018-02-15T05:52:06.799Z,-1.56
2018-02-15T05:53:06.846Z,-1.63
2018-02-15T05:54:06.784Z,-1.54
2018-02-15T05:55:06.783Z,-1.60
2018-02-15T05:56:06.774Z,-1.59
2018-02-15T05:57:06.764Z,-1.69
2018-02-15T05:58:06.802Z,-1.80
2018-02-15T05:59:06.755Z,-1.80
2018-02-15T06:00:06.743Z,-1.85
2018-02-15T06:01:06.735Z,-1.84
2018-02-15T06:02:06.727Z,-1.69
2018-02-15T06:03:06.773Z,-1.70
2018-02-15T06:04:06.720Z,-1.80
2018-02-15T06:05:06.709Z,-1.80
2018-02-15T06:06:06.702Z,-1.81
2018-02-15T06:07:06.695Z,-1.81
2018-02-15T06:08:06.736Z,-1.88
2018-02-15T06:09:06.722Z,-1.87
2018-02-15T06:10:06.674Z,-1.75
2018-02-15T06:11:06.665Z,-1.93
2018-02-15T06:12:06.661Z,-1.84
2018-02-15T06:13:06.693Z,-1.88
2018-02-15T06:14:06.646Z,-1.85
2018-02-15T06:15:06.640Z,-1.93
2018-02-15T06:16:06.632Z,-1.93
2018-02-15T06:17:06.629Z,-2.02
2018-02-15T06:18:06.661Z,-1.99
2018-02-15T06:19:06.614Z,-1.92
2018-02-15T06:20:06.608Z,-1.95
2018-02-15T06:21:06.655Z,-1.85
2018-02-15T06:22:06.650Z,-1.69
2018-02-15T06:23:06.685Z,-1.70
2018-02-15T06:24:06.637Z,-1.74
2018-02-15T06:25:06.626Z,-1.57
2018-02-15T06:26:06.621Z,-1.66
2018-02-15T06:27:06.613Z,-1.64
2018-02-15T06:28:06.661Z,-1.63
2018-02-15T06:29:06.603Z,-1.54
2018-02-15T06:30:06.595Z,-1.56
2018-02-15T06:31:06.586Z,-1.60
2018-02-15T06:32:06.578Z,-1.57
2018-02-15T06:33:06.621Z,-1.64
2018-02-15T06:34:06.572Z,-1.64
2018-02-15T06:35:06.561Z,-1.57
2018-02-15T06:36:06.549Z,-1.54
2018-02-15T06:37:07.880Z,-1.62
2018-02-15T06:38:06.585Z,-1.59
2018-02-15T06:39:06.531Z,-1.70
2018-02-15T06:40:06.906Z,-1.66
2018-02-15T06:41:06.546Z,-1.77
2018-02-15T06:42:06.510Z,-1.88
2018-02-15T06:43:06.988Z,-1.87
2018-02-15T06:44:06.498Z,-1.84
2018-02-15T06:45:06.808Z,-1.77
2018-02-15T06:46:06.482Z,-1.77
2018-02-15T06:47:06.479Z,-1.66
2018-02-15T06:48:07.207Z,-1.63
2018-02-15T06:49:06.463Z,-1.72
2018-02-15T06:50:07.667Z,-1.67
2018-02-15T06:51:06.450Z,-1.72
2018-02-15T06:52:07.011Z,-1.78
2018-02-15T06:53:07.070Z,-1.74
2018-02-15T06:54:06.466Z,-1.60
2018-02-15T06:55:07.338Z,-1.57
2018-02-15T06:56:06.413Z,-1.51
2018-02-15T06:57:06.948Z,-1.51
2018-02-15T06:58:06.401Z,-1.46
2018-02-15T06:59:07.194Z,-1.42
2018-02-15T07:00:06.389Z,-1.48
2018-02-15T07:01:06.851Z,-1.48
2018-02-15T07:02:06.380Z,-1.57
2018-02-15T07:03:06.917Z,-1.49
2018-02-15T07:04:07.303Z,-1.54
2018-02-15T07:05:06.404Z,-1.53
2018-02-15T07:06:06.352Z,-1.57
2018-02-15T07:07:06.346Z,-1.57
2018-02-15T07:08:06.335Z,-1.63
2018-02-15T07:09:06.333Z,-1.57
2018-02-15T07:10:06.356Z,-1.63
2018-02-15T07:11:06.314Z,-1.51
2018-02-15T07:12:06.307Z,-1.57
2018-02-15T07:13:06.305Z,-1.46
2018-02-15T07:14:06.295Z,-1.56
2018-02-15T07:15:06.333Z,-1.53
2018-02-15T07:16:06.283Z,-1.43
2018-02-15T07:17:06.276Z,-1.42
2018-02-15T07:18:06.267Z,-1.42
2018-02-15T07:19:06.303Z,-1.24
2018-02-15T07:20:06.256Z,-1.24
2018-02-15T07:21:06.251Z,-1.25
2018-02-15T07:22:06.242Z,-1.18
2018-02-15T07:23:06.237Z,-1.09
2018-02-15T07:24:06.265Z,-1.03
2018-02-15T07:25:06.226Z,-0.95
2018-02-15T07:26:06.218Z,-0.81
2018-02-15T07:27:06.215Z,-0.81
2018-02-15T07:28:06.205Z,-0.86
2018-02-15T07:29:06.249Z,-0.89
2018-02-15T07:30:06.193Z,-0.87
2018-02-15T07:31:06.225Z,-0.84
2018-02-15T07:32:06.184Z,-0.73
2018-02-15T07:33:06.174Z,-0.75
2018-02-15T07:34:06.165Z,-0.66
2018-02-15T07:35:06.199Z,-0.69
2018-02-15T07:36:06.153Z,-0.63
2018-02-15T07:37:06.146Z,-0.63
2018-02-15T07:38:06.141Z,-0.51
2018-02-15T07:39:06.134Z,-0.47
2018-02-15T07:40:06.173Z,-0.33
2018-02-15T07:41:06.124Z,-0.44
2018-02-15T07:42:06.120Z,-0.41
2018-02-15T07:43:06.111Z,-0.37
2018-02-15T07:44:06.105Z,-0.36
2018-02-15T07:45:06.144Z,-0.26
2018-02-15T07:46:06.093Z,-0.30
2018-02-15T07:47:06.086Z,-0.27
2018-02-15T07:48:06.079Z,-0.27
2018-02-15T07:49:06.621Z,-0.22
2018-02-15T07:50:07.375Z,-0.12
2018-02-15T07:51:08.056Z,-0.08
2018-02-15T07:52:06.066Z,-0.09
2018-02-15T07:53:06.447Z,-0.18
2018-02-15T07:54:06.376Z,-0.24
2018-02-15T07:55:06.786Z,-0.12
2018-02-15T07:56:06.083Z,-0.05
2018-02-15T07:57:07.332Z,-0.05
2018-02-15T07:58:06.027Z,-0.04
2018-02-15T07:59:06.020Z,0.03
2018-02-15T08:00:06.220Z,0.10
2018-02-15T08:01:06.058Z,0.09
2018-02-15T08:02:06.452Z,0.18
2018-02-15T08:03:06.034Z,0.16
2018-02-15T08:04:05.999Z,0.28
2018-02-15T08:05:06.404Z,0.28
2018-02-15T08:06:06.024Z,0.42
2018-02-15T08:07:06.360Z,0.46
2018-02-15T08:08:05.974Z,0.39
2018-02-15T08:09:06.829Z,0.52
2018-02-15T08:10:05.966Z,0.58
2018-02-15T08:11:05.962Z,0.33
2018-02-15T08:12:05.996Z,0.23
2018-02-15T08:13:05.948Z,0.06
2018-02-15T08:14:05.938Z,0.13
2018-02-15T08:15:05.937Z,0.07
2018-02-15T08:16:05.934Z,0.10
2018-02-15T08:17:05.967Z,0.07
2018-02-15T08:18:05.926Z,0.24
2018-02-15T08:19:05.911Z,0.43
2018-02-15T08:20:05.904Z,0.52
2018-02-15T08:21:05.914Z,0.58
2018-02-15T08:22:05.941Z,0.80
2018-02-15T08:23:05.895Z,0.92
2018-02-15T08:24:05.887Z,0.88
2018-02-15T08:25:05.899Z,1.00
2018-02-15T08:26:05.882Z,0.82
2018-02-15T08:27:05.923Z,0.57
2018-02-15T08:28:05.867Z,0.48
2018-02-15T08:29:05.862Z,0.53
2018-02-15T08:30:05.861Z,0.57
2018-02-15T08:31:05.858Z,0.62
2018-02-15T08:32:05.904Z,0.70
2018-02-15T08:33:05.861Z,0.80
2018-02-15T08:34:05.841Z,0.92
2018-02-15T08:35:05.836Z,0.94
2018-02-15T08:36:05.882Z,1.07
2018-02-15T08:37:05.851Z,1.07
2018-02-15T08:38:05.822Z,1.08
2018-02-15T08:39:05.816Z,1.12
2018-02-15T08:40:05.813Z,1.21
2018-02-15T08:41:05.846Z,0.94
2018-02-15T08:42:05.832Z,0.65
2018-02-15T08:43:05.850Z,0.65
2018-02-15T08:44:05.810Z,0.75
2018-02-15T08:45:06.003Z,0.62
2018-02-15T08:46:07.351Z,0.68
2018-02-15T08:47:05.829Z,0.70
2018-02-15T08:48:05.777Z,0.90
2018-02-15T08:49:05.810Z,0.89
2018-02-15T08:50:05.777Z,1.04
2018-02-15T08:51:06.674Z,1.18
2018-02-15T08:52:05.778Z,1.24
2018-02-15T08:53:05.758Z,1.16
2018-02-15T08:54:05.792Z,1.12
2018-02-15T08:55:05.751Z,1.24
2018-02-15T08:56:05.747Z,0.83
2018-02-15T08:57:06.646Z,0.80
2018-02-15T08:58:06.286Z,0.64
2018-02-15T08:59:06.356Z,0.82
2018-02-15T09:00:06.837Z,1.10
2018-02-15T09:01:06.334Z,0.92
2018-02-15T09:02:05.719Z,0.76
2018-02-15T09:03:05.752Z,1.03
2018-02-15T09:04:05.720Z,1.12
2018-02-15T09:05:05.721Z,1.22
2018-02-15T09:06:05.698Z,1.18
2018-02-15T09:07:05.694Z,1.10
2018-02-15T09:08:05.744Z,1.06
2018-02-15T09:09:05.696Z,1.19
2018-02-15T09:10:06.327Z,1.25
2018-02-15T09:11:06.061Z,1.36
2018-02-15T09:12:06.458Z,1.43
2018-02-15T09:13:05.865Z,1.47
2018-02-15T09:14:06.583Z,1.44
2018-02-15T09:15:05.662Z,1.39
2018-02-15T09:16:05.661Z,1.07
2018-02-15T09:17:05.897Z,1.33
2018-02-15T09:18:05.690Z,1.16
2018-02-15T09:19:05.644Z,1.36
2018-02-15T09:20:05.642Z,1.44
2018-02-15T09:21:05.638Z,1.39
2018-02-15T09:22:05.638Z,1.37
2018-02-15T09:23:05.671Z,1.16
2018-02-15T09:24:05.627Z,1.10
2018-02-15T09:25:05.625Z,1.10
2018-02-15T09:26:05.632Z,1.40
2018-02-15T09:27:05.659Z,1.43
2018-02-15T09:28:05.676Z,1.57
2018-02-15T09:29:05.614Z,1.79
2018-02-15T09:30:06.626Z,1.73
2018-02-15T09:31:05.792Z,1.69
2018-02-15T09:32:05.764Z,1.90
2018-02-15T09:33:06.349Z,1.83
2018-02-15T09:34:05.608Z,1.68
2018-02-15T09:35:05.593Z,1.47
2018-02-15T09:36:05.633Z,1.68
2018-02-15T09:37:05.589Z,1.62
2018-02-15T09:38:05.593Z,1.51
2018-02-15T09:39:05.616Z,1.71
2018-02-15T09:40:05.578Z,1.55
2018-02-15T09:41:05.578Z,1.39
2018-02-15T09:42:05.569Z,1.18
2018-02-15T09:43:05.554Z,1.47
2018-02-15T09:44:05.589Z,1.85
2018-02-15T09:45:05.544Z,1.72
2018-02-15T09:46:05.935Z,1.61
2018-02-15T09:47:05.965Z,1.80
2018-02-15T09:48:06.392Z,1.60
2018-02-15T09:49:06.316Z,1.47
2018-02-15T09:50:05.539Z,1.61
2018-02-15T09:51:05.525Z,1.54
2018-02-15T09:52:05.519Z,1.87
2018-02-15T09:53:05.518Z,1.94
2018-02-15T09:54:06.008Z,2.02
2018-02-15T09:55:05.507Z,2.02
2018-02-15T09:56:05.505Z,1.80
2018-02-15T09:57:05.504Z,1.73
2018-02-15T09:58:05.496Z,1.51
2018-02-15T09:59:05.533Z,1.46
2018-02-15T10:00:06.416Z,1.60
2018-02-15T10:01:05.513Z,1.79
2018-02-15T10:02:05.482Z,1.52
2018-02-15T10:03:06.420Z,1.72
2018-02-15T10:04:05.680Z,1.98
2018-02-15T10:05:05.765Z,1.90
2018-02-15T10:06:05.573Z,1.91
2018-02-15T10:07:05.480Z,1.71
2018-02-15T10:08:05.475Z,1.85
2018-02-15T10:09:05.512Z,2.02
2018-02-15T10:10:05.472Z,1.87
2018-02-15T10:11:05.468Z,2.08
2018-02-15T10:12:05.465Z,1.82
2018-02-15T10:13:05.460Z,1.87
2018-02-15T10:14:05.494Z,1.85
2018-02-15T10:15:05.452Z,1.83
2018-02-15T10:16:05.449Z,1.68
2018-02-15T10:17:05.447Z,1.68
2018-02-15T10:18:05.445Z,1.80
2018-02-15T10:19:05.528Z,1.71
2018-02-15T10:20:06.413Z,1.80
2018-02-15T10:21:05.545Z,2.02
2018-02-15T10:22:06.545Z,1.87
2018-02-15T10:23:29.541Z,1.89
2018-02-15T10:24:05.422Z,1.79
2018-02-15T10:25:05.422Z,1.60
2018-02-15T10:26:05.417Z,1.62
2018-02-15T10:27:05.419Z,1.73
2018-02-15T10:28:05.411Z,1.85
2018-02-15T10:29:05.452Z,2.01
2018-02-15T10:30:05.406Z,2.28
2018-02-15T10:31:05.404Z,2.01
2018-02-15T10:32:05.399Z,2.09
2018-02-15T10:33:05.400Z,1.90
2018-02-15T10:34:05.445Z,1.90
2018-02-15T10:35:05.391Z,2.22
2018-02-15T10:36:05.429Z,2.13
2018-02-15T10:37:05.384Z,1.85
2018-02-15T10:38:05.379Z,1.91
2018-02-15T10:39:05.430Z,2.13
2018-02-15T10:40:05.414Z,2.16
2018-02-15T10:41:05.372Z,2.30
2018-02-15T10:42:05.366Z,2.40
2018-02-15T10:43:05.367Z,2.61
2018-02-15T10:44:05.420Z,2.89
2018-02-15T10:45:05.360Z,2.84
2018-02-15T10:46:05.355Z,2.79
2018-02-15T10:47:05.356Z,2.52
2018-02-15T10:48:05.349Z,2.58
2018-02-15T10:49:05.385Z,2.64
2018-02-15T10:50:05.343Z,2.40
2018-02-15T10:51:05.368Z,2.41
2018-02-15T10:52:05.337Z,2.01
2018-02-15T10:53:05.336Z,2.30
2018-02-15T10:54:05.367Z,2.34
2018-02-15T10:55:05.332Z,2.52
2018-02-15T10:56:05.327Z,2.52
2018-02-15T10:57:05.330Z,2.33
2018-02-15T10:58:05.320Z,2.26
2018-02-15T10:59:05.357Z,2.10
2018-02-15T11:00:05.317Z,2.20
2018-02-15T11:01:05.320Z,2.33
2018-02-15T11:02:05.312Z,2.31
2018-02-15T11:03:05.310Z,2.31
2018-02-15T11:04:05.351Z,2.48
2018-02-15T11:05:05.305Z,2.69
2018-02-15T11:06:05.303Z,2.77
2018-02-15T11:07:05.299Z,2.49
2018-02-15T11:08:05.297Z,2.31
2018-02-15T11:09:05.343Z,2.30
2018-02-15T11:10:05.294Z,2.55
2018-02-15T11:11:05.287Z,2.35
2018-02-15T11:12:05.286Z,2.31
2018-02-15T11:13:05.281Z,2.48
2018-02-15T11:14:05.321Z,2.49
2018-02-15T11:15:05.279Z,2.59
2018-02-15T11:16:05.272Z,2.52
2018-02-15T11:17:05.274Z,2.49
2018-02-15T11:18:05.274Z,2.44
2018-02-15T11:19:05.305Z,2.23
2018-02-15T11:20:05.261Z,2.37
2018-02-15T11:21:05.260Z,2.37
2018-02-15T11:22:05.259Z,2.52
2018-02-15T11:23:05.256Z,2.26
2018-02-15T11:24:05.302Z,2.38
2018-02-15T11:25:05.250Z,2.46
2018-02-15T11:26:05.246Z,2.35
2018-02-15T11:27:05.243Z,2.48
2018-02-15T11:28:05.293Z,2.49
2018-02-15T11:29:05.236Z,2.48
2018-02-15T11:30:05.245Z,2.45
2018-02-15T11:31:05.235Z,2.27
2018-02-15T11:32:05.225Z,2.33
2018-02-15T11:33:05.263Z,2.40
2018-02-15T11:34:05.224Z,2.48
2018-02-15T11:35:05.260Z,2.44
2018-02-15T11:36:05.215Z,2.38
2018-02-15T11:37:05.210Z,2.46
2018-02-15T11:38:05.212Z,2.67
2018-02-15T11:39:05.205Z,2.67
2018-02-15T11:40:05.253Z,2.48
2018-02-15T11:41:05.197Z,2.70
2018-02-15T11:42:05.233Z,2.66
2018-02-15T11:43:05.190Z,2.58
2018-02-15T11:44:05.187Z,2.56
2018-02-15T11:45:05.184Z,2.67
2018-02-15T11:46:05.229Z,2.69
2018-02-15T11:47:05.183Z,2.48
2018-02-15T11:48:05.174Z,2.66
2018-02-15T11:49:05.172Z,2.61
2018-02-15T11:50:05.170Z,2.66
2018-02-15T11:51:05.212Z,2.55
2018-02-15T11:52:05.164Z,2.55
2018-02-15T11:53:05.160Z,2.63
2018-02-15T11:54:05.157Z,2.51
2018-02-15T11:55:05.203Z,2.51
2018-02-15T11:56:05.148Z,2.48
2018-02-15T11:57:05.143Z,2.51
2018-02-15T11:58:05.202Z,2.41
2018-02-15T11:59:05.140Z,2.49
2018-02-15T12:00:05.962Z,2.53
2018-02-15T12:01:05.152Z,2.67
2018-02-15T12:02:05.137Z,2.63
2018-02-15T12:03:05.127Z,2.64
2018-02-15T12:04:05.165Z,2.52
2018-02-15T12:05:05.158Z,2.66
2018-02-15T12:06:05.117Z,2.71
2018-02-15T12:07:05.113Z,2.85
2018-02-15T12:08:05.108Z,2.74
2018-02-15T12:09:05.104Z,2.64
2018-02-15T12:10:05.140Z,2.61
2018-02-15T12:11:05.104Z,2.64
2018-02-15T12:12:05.097Z,2.73
2018-02-15T12:13:05.095Z,2.76
2018-02-15T12:14:05.090Z,2.64
2018-02-15T12:15:05.131Z,2.69
2018-02-15T12:16:05.078Z,2.61
2018-02-15T12:17:05.078Z,2.58
2018-02-15T12:18:05.138Z,2.66
2018-02-15T12:19:05.072Z,2.61
2018-02-15T12:20:05.064Z,2.76
2018-02-15T12:21:05.102Z,2.71
2018-02-15T12:22:05.059Z,2.76
2018-02-15T12:23:05.059Z,2.73
2018-02-15T12:24:05.054Z,2.87
2018-02-15T12:25:05.059Z,2.87
2018-02-15T12:26:05.090Z,3.02
2018-02-15T12:27:05.042Z,3.13
2018-02-15T12:28:05.041Z,3.24
2018-02-15T12:29:05.037Z,3.25
2018-02-15T12:30:05.033Z,3.15
2018-02-15T12:31:05.072Z,3.15
2018-02-15T12:32:05.027Z,3.24
2018-02-15T12:33:05.024Z,3.25
2018-02-15T12:34:05.021Z,3.24
2018-02-15T12:35:05.020Z,3.13
2018-02-15T12:36:05.066Z,2.94
2018-02-15T12:37:05.010Z,2.74
2018-02-15T12:38:05.058Z,2.81
2018-02-15T12:39:05.010Z,2.98
2018-02-15T12:40:05.004Z,3.07
2018-02-15T12:41:05.037Z,3.07
2018-02-15T12:42:04.997Z,3.00
2018-02-15T12:43:04.994Z,2.91
2018-02-15T12:44:04.992Z,2.92
2018-02-15T12:45:04.905Z,3.02
2018-02-15T12:46:04.937Z,3.13
2018-02-15T12:47:04.976Z,3.23
2018-02-15T12:48:05.664Z,3.20
2018-02-15T12:49:04.894Z,3.25
2018-02-15T12:50:04.892Z,3.12
2018-02-15T12:51:04.930Z,3.06
2018-02-15T12:52:04.883Z,2.98
2018-02-15T12:53:04.882Z,3.05
2018-02-15T12:54:04.884Z,2.98
2018-02-15T12:55:04.878Z,3.21
2018-02-15T12:56:04.921Z,3.27
2018-02-15T12:57:04.870Z,3.43
2018-02-15T12:58:04.916Z,3.15
2018-02-15T12:59:04.864Z,3.27
2018-02-15T13:00:04.863Z,3.27
2018-02-15T13:01:04.861Z,3.30
2018-02-15T13:02:05.199Z,3.15